CYAW/YAW METAR and TAF weather

Enter ICAO airport designator
Station Type Date Time Source
CYAW METAR 2023/01/27 21:41 UTC NOAA

CYAW 272141Z 29008G15KT 15SM FEW030 M00/M10 A3009 RMK SC1 DENSITY ALT -1843FT LAST OBS /NEXT 311100 UTC SLP190


Station Type Date Time Source
CYAW Decoded METAR 2023/01/27 21:41 UTC NOAA

Shearwater, N. S., Canada (CYAW) 44-38N 063-30W 51M
Jan 27, 2023 - 04:41 PM EST / 2023.01.27 2141 UTC
Wind: from the WNW (290 degrees) at 9 MPH (8 KT) gusting to 17 MPH (15 KT):0
Visibility: 15 mile(s):0
Sky conditions: mostly clear
Temperature: 32 F (0 C)
Windchill: 24 F (-4 C):1
Dew Point: 14 F (-10 C)
Relative Humidity: 46%
Pressure (altimeter): 30.09 in. Hg (1018 hPa)
ob: CYAW 272141Z 29008G15KT 15SM FEW030 M00/M10 A3009 RMK SC1 DENSITY ALT -1843FT LAST OBS /NEXT 311100 UTC SLP190
cycle: 21

Station Type Date Time Source
CYAW TAF 2023/01/27 18:45 UTC NOAA

TAF CYAW 271740Z 2718/2806 28012G22KT P6SM FEW030
BECMG 2722/2724 32008KT
FM280200 VRB03KT P6SM SKC
RMK NXT FCST BY 280000Z

Example: see airport list